createdAt,value
2019-05-21T00:00:03.526Z,11.663208
2019-05-21T00:01:13.068Z,11.68335
2019-05-21T00:02:22.846Z,11.68335
2019-05-21T00:03:32.386Z,11.69342
2019-05-21T00:04:41.941Z,11.68335
2019-05-21T00:05:51.475Z,11.663208
2019-05-21T00:07:01.045Z,11.653137
2019-05-21T00:08:10.599Z,11.663208
2019-05-21T00:09:20.129Z,11.663208
2019-05-21T00:10:29.649Z,11.653137
2019-05-21T00:11:39.171Z,11.663208
2019-05-21T00:12:48.740Z,11.653137
2019-05-21T00:13:58.296Z,11.622925
2019-05-21T00:15:07.824Z,11.632996
2019-05-21T00:16:17.354Z,11.602783
2019-05-21T00:17:26.937Z,11.602783
2019-05-21T00:18:36.414Z,11.592712
2019-05-21T00:19:45.948Z,11.602783
2019-05-21T00:20:55.502Z,11.592712
2019-05-21T00:22:05.055Z,11.602783
2019-05-21T00:23:14.611Z,11.592712
2019-05-21T00:24:24.170Z,11.592712
2019-05-21T00:25:33.707Z,11.572571
2019-05-21T00:26:43.233Z,11.592712
2019-05-21T00:27:52.790Z,11.572571
2019-05-21T00:29:02.337Z,11.592712
2019-05-21T00:30:11.891Z,11.592712
2019-05-21T00:31:21.422Z,11.592712
2019-05-21T00:32:30.981Z,11.592712
2019-05-21T00:33:40.502Z,11.592712
2019-05-21T00:34:51.118Z,11.552429
2019-05-21T00:36:00.517Z,11.572571
2019-05-21T00:37:10.083Z,11.572571
2019-05-21T00:38:19.694Z,11.592712
2019-05-21T00:39:29.247Z,11.602783
2019-05-21T00:40:38.772Z,11.592712
2019-05-21T00:41:48.295Z,11.602783
2019-05-21T00:42:57.909Z,11.592712
2019-05-21T00:44:07.447Z,11.602783
2019-05-21T00:45:16.979Z,11.572571
2019-05-21T00:46:26.568Z,11.572571
2019-05-21T00:47:36.182Z,11.592712
2019-05-21T00:48:45.711Z,11.592712
2019-05-21T00:49:55.241Z,11.572571
2019-05-21T00:51:04.798Z,11.552429
2019-05-21T00:52:14.331Z,11.572571
2019-05-21T00:53:23.890Z,11.522217
2019-05-21T00:54:33.420Z,11.572571
2019-05-21T00:55:42.947Z,11.552429
2019-05-21T00:56:52.451Z,11.542358
2019-05-21T00:58:02.039Z,11.542358
2019-05-21T00:59:11.613Z,11.552429
2019-05-21T01:00:21.099Z,11.552429
2019-05-21T01:01:30.623Z,11.542358
2019-05-21T01:02:40.173Z,11.552429
2019-05-21T01:03:49.725Z,11.542358
2019-05-21T01:05:00.977Z,11.542358
2019-05-21T01:06:08.760Z,11.542358
2019-05-21T01:07:18.324Z,11.552429
2019-05-21T01:08:27.861Z,11.542358
2019-05-21T01:09:37.385Z,11.542358
2019-05-21T01:10:46.917Z,11.552429
2019-05-21T01:11:56.464Z,11.552429
2019-05-21T01:13:06.064Z,11.572571
2019-05-21T01:14:15.603Z,11.552429
2019-05-21T01:15:25.118Z,11.552429
2019-05-21T01:16:34.652Z,11.572571
2019-05-21T01:17:44.178Z,11.552429
2019-05-21T01:18:53.722Z,11.572571
2019-05-21T01:20:03.239Z,11.552429
2019-05-21T01:21:12.764Z,11.542358
2019-05-21T01:22:22.287Z,11.552429
2019-05-21T01:23:31.883Z,11.552429
2019-05-21T01:24:41.425Z,11.572571
2019-05-21T01:25:50.942Z,11.572571
2019-05-21T01:27:00.465Z,11.572571
2019-05-21T01:28:09.980Z,11.552429
2019-05-21T01:29:19.538Z,11.552429
2019-05-21T01:30:29.055Z,11.552429
2019-05-21T01:31:38.567Z,11.542358
2019-05-21T01:32:48.100Z,11.552429
2019-05-21T01:33:57.686Z,11.572571
2019-05-21T01:35:16.438Z,11.552429
2019-05-21T01:36:17.697Z,11.552429
2019-05-21T01:37:27.218Z,11.552429
2019-05-21T01:38:36.784Z,11.552429
2019-05-21T01:39:46.326Z,11.542358
2019-05-21T01:40:55.924Z,11.542358
2019-05-21T01:42:05.460Z,11.552429
2019-05-21T01:43:14.994Z,11.552429
2019-05-21T01:44:24.558Z,11.552429
2019-05-21T01:45:34.080Z,11.552429
2019-05-21T01:46:43.651Z,11.552429
2019-05-21T01:47:52.149Z,11.552429
2019-05-21T01:49:02.711Z,11.522217
2019-05-21T01:50:12.242Z,11.542358
2019-05-21T01:51:21.788Z,11.542358
2019-05-21T01:52:31.296Z,11.522217
2019-05-21T01:53:40.840Z,11.542358
2019-05-21T01:54:50.393Z,11.522217
2019-05-21T01:55:59.916Z,11.542358
2019-05-21T01:57:09.451Z,11.542358
2019-05-21T01:58:18.998Z,11.542358
2019-05-21T01:59:28.519Z,11.512146
2019-05-21T02:00:38.144Z,11.522217
2019-05-21T02:01:47.678Z,11.512146
2019-05-21T02:02:57.207Z,11.512146
2019-05-21T02:04:06.746Z,11.512146
2019-05-21T02:05:30.655Z,11.522217
2019-05-21T02:06:26.796Z,11.522217
2019-05-21T02:07:36.346Z,11.512146
2019-05-21T02:08:45.880Z,11.512146
2019-05-21T02:09:55.491Z,11.512146
2019-05-21T02:11:05.006Z,11.512146
2019-05-21T02:12:14.527Z,11.512146
2019-05-21T02:13:24.053Z,11.512146
2019-05-21T02:14:33.582Z,11.512146
2019-05-21T02:15:43.140Z,11.471863
2019-05-21T02:16:52.673Z,11.471863
2019-05-21T02:18:02.173Z,11.451721
2019-05-21T02:19:11.728Z,11.44165
2019-05-21T02:20:21.254Z,11.43158
2019-05-21T02:21:30.954Z,11.411438
2019-05-21T02:22:40.492Z,11.411438
2019-05-21T02:23:50.030Z,11.401367
2019-05-21T02:24:59.567Z,11.371155
2019-05-21T02:26:09.168Z,11.371155
2019-05-21T02:27:18.693Z,11.361084
2019-05-21T02:28:28.220Z,11.351013
2019-05-21T02:29:37.746Z,11.361084
2019-05-21T02:30:47.291Z,11.330872
2019-05-21T02:31:57.786Z,11.320801
2019-05-21T02:33:07.295Z,11.270447
2019-05-21T02:34:16.827Z,11.270447
2019-05-21T02:35:26.340Z,11.270447
2019-05-21T02:36:36.883Z,11.250305
2019-05-21T02:37:46.398Z,11.270447
2019-05-21T02:38:55.930Z,11.260376
2019-05-21T02:40:05.473Z,11.250305
2019-05-21T02:41:15.027Z,11.260376
2019-05-21T02:42:24.546Z,11.250305
2019-05-21T02:43:34.075Z,11.250305
2019-05-21T02:44:43.596Z,11.230164
2019-05-21T02:45:54.156Z,11.220093
2019-05-21T02:47:03.677Z,11.220093
2019-05-21T02:48:13.201Z,11.18988
2019-05-21T02:49:22.730Z,11.220093
2019-05-21T02:50:32.252Z,11.220093
2019-05-21T02:51:41.802Z,11.18988
2019-05-21T02:52:51.320Z,11.169739
2019-05-21T02:54:00.843Z,11.17981
2019-05-21T02:55:10.365Z,11.169739
2019-05-21T02:56:19.950Z,11.149597
2019-05-21T02:57:29.444Z,11.149597
2019-05-21T02:58:38.966Z,11.149597
2019-05-21T02:59:48.492Z,11.149597
2019-05-21T03:00:58.042Z,11.149597
2019-05-21T03:02:07.585Z,11.139526
2019-05-21T03:03:17.096Z,11.119385
2019-05-21T03:04:26.612Z,11.119385
2019-05-21T03:05:36.128Z,11.119385
2019-05-21T03:06:45.695Z,11.099243
2019-05-21T03:07:55.215Z,11.109314
2019-05-21T03:09:04.748Z,11.109314
2019-05-21T03:10:14.267Z,11.109314
2019-05-21T03:11:23.813Z,11.109314
2019-05-21T03:12:33.344Z,11.109314
2019-05-21T03:13:42.878Z,11.079102
2019-05-21T03:14:52.399Z,11.069031
2019-05-21T03:16:01.954Z,11.048889
2019-05-21T03:17:11.472Z,11.048889
2019-05-21T03:18:20.993Z,11.038818
2019-05-21T03:19:30.517Z,11.038818
2019-05-21T03:20:40.050Z,11.018677
2019-05-21T03:21:49.592Z,10.988464
2019-05-21T03:22:59.197Z,10.988464
2019-05-21T03:24:08.713Z,10.958252
2019-05-21T03:25:18.257Z,10.958252
2019-05-21T03:26:27.802Z,10.92804
2019-05-21T03:27:37.341Z,10.917969
2019-05-21T03:28:46.869Z,10.92804
2019-05-21T03:29:56.390Z,10.92804
2019-05-21T03:31:05.974Z,10.917969
2019-05-21T03:32:15.553Z,10.887756
2019-05-21T03:33:25.063Z,10.897827
2019-05-21T03:34:34.595Z,10.897827
2019-05-21T03:35:44.145Z,10.887756
2019-05-21T03:36:53.695Z,10.867615
2019-05-21T03:38:03.291Z,10.857544
2019-05-21T03:39:12.844Z,10.857544
2019-05-21T03:40:22.336Z,10.867615
2019-05-21T03:41:31.866Z,10.857544
2019-05-21T03:42:41.423Z,10.857544
2019-05-21T03:43:50.970Z,10.857544
2019-05-21T03:45:01.155Z,10.857544
2019-05-21T03:46:10.001Z,10.837402
2019-05-21T03:47:19.565Z,10.837402
2019-05-21T03:48:29.104Z,10.867615
2019-05-21T03:49:38.644Z,10.837402
2019-05-21T03:50:48.183Z,10.817261
2019-05-21T03:51:57.701Z,10.817261
2019-05-21T03:53:07.256Z,10.817261
2019-05-21T03:54:16.806Z,10.817261
2019-05-21T03:55:26.335Z,10.817261
2019-05-21T03:56:35.864Z,10.80719
2019-05-21T03:57:45.431Z,10.787048
2019-05-21T03:58:54.949Z,10.787048
2019-05-21T04:00:04.479Z,10.787048
2019-05-21T04:01:14.013Z,10.787048
2019-05-21T04:02:23.567Z,10.787048
2019-05-21T04:03:33.092Z,10.776978
2019-05-21T04:04:42.609Z,10.80719
2019-05-21T04:05:52.165Z,10.787048
2019-05-21T04:07:01.719Z,10.787048
2019-05-21T04:08:11.278Z,10.776978
2019-05-21T04:09:20.801Z,10.787048
2019-05-21T04:10:30.314Z,10.787048
2019-05-21T04:11:39.864Z,10.756836
2019-05-21T04:12:49.393Z,10.787048
2019-05-21T04:13:58.976Z,10.776978
2019-05-21T04:15:08.489Z,10.787048
2019-05-21T04:16:18.004Z,10.817261
2019-05-21T04:17:27.522Z,10.817261
2019-05-21T04:18:37.035Z,10.80719
2019-05-21T04:19:46.548Z,10.776978
2019-05-21T04:20:56.083Z,10.776978
2019-05-21T04:22:05.567Z,10.80719
2019-05-21T04:23:15.093Z,10.817261
2019-05-21T04:24:24.668Z,10.80719
2019-05-21T04:25:34.188Z,10.776978
2019-05-21T04:26:43.706Z,10.776978
2019-05-21T04:27:52.231Z,10.756836
2019-05-21T04:29:01.778Z,10.787048
2019-05-21T04:30:11.603Z,10.756836
2019-05-21T04:31:20.796Z,10.776978
2019-05-21T04:32:30.449Z,10.776978
2019-05-21T04:33:39.960Z,10.746765
2019-05-21T04:34:49.476Z,10.756836
2019-05-21T04:35:58.986Z,10.756836
2019-05-21T04:37:11.156Z,10.746765
2019-05-21T04:38:19.028Z,10.756836
2019-05-21T04:39:28.599Z,10.746765
2019-05-21T04:40:38.695Z,10.756836
2019-05-21T04:41:48.221Z,10.746765
2019-05-21T04:43:01.604Z,10.756836
2019-05-21T04:44:07.310Z,10.736694
2019-05-21T04:45:16.845Z,10.746765
2019-05-21T04:46:26.412Z,10.756836
2019-05-21T04:47:35.874Z,10.716553
2019-05-21T04:48:45.555Z,10.736694
2019-05-21T04:49:55.090Z,10.716553
2019-05-21T04:51:04.639Z,10.716553
2019-05-21T04:52:15.167Z,10.736694
2019-05-21T04:53:24.695Z,10.736694
2019-05-21T04:54:34.249Z,10.716553
2019-05-21T04:55:43.792Z,10.716553
2019-05-21T04:56:53.316Z,10.716553
2019-05-21T04:58:02.847Z,10.716553
2019-05-21T04:59:12.417Z,10.736694
2019-05-21T05:00:21.960Z,10.736694
2019-05-21T05:01:31.491Z,10.716553
2019-05-21T05:02:41.016Z,10.706482
2019-05-21T05:03:50.543Z,10.68634
2019-05-21T05:05:00.107Z,10.706482
2019-05-21T05:06:09.637Z,10.68634
2019-05-21T05:07:27.971Z,10.67627
2019-05-21T05:08:29.649Z,10.67627
2019-05-21T05:09:39.199Z,10.68634
2019-05-21T05:10:49.354Z,10.68634
2019-05-21T05:11:58.257Z,10.67627
2019-05-21T05:13:07.785Z,10.67627
2019-05-21T05:14:17.322Z,10.67627
2019-05-21T05:15:26.916Z,10.68634
2019-05-21T05:16:36.454Z,10.666199
2019-05-21T05:17:45.973Z,10.635986
2019-05-21T05:18:55.471Z,10.67627
2019-05-21T05:20:05.021Z,10.635986
2019-05-21T05:21:14.564Z,10.666199
2019-05-21T05:22:24.084Z,10.635986
2019-05-21T05:23:33.618Z,10.67627
2019-05-21T05:24:43.180Z,10.67627
2019-05-21T05:25:52.721Z,10.666199
2019-05-21T05:27:02.251Z,10.666199
2019-05-21T05:28:11.804Z,10.666199
2019-05-21T05:29:21.354Z,10.666199
2019-05-21T05:30:30.901Z,10.666199
2019-05-21T05:31:40.473Z,10.68634
2019-05-21T05:32:50.065Z,10.68634
2019-05-21T05:33:59.621Z,10.706482
2019-05-21T05:35:09.188Z,10.716553
2019-05-21T05:36:18.734Z,10.706482
2019-05-21T05:37:42.717Z,10.736694
2019-05-21T05:38:38.757Z,10.716553
2019-05-21T05:39:48.325Z,10.746765
2019-05-21T05:40:57.860Z,10.736694
2019-05-21T05:42:07.382Z,10.736694
2019-05-21T05:43:20.132Z,10.746765
2019-05-21T05:44:26.460Z,10.746765
2019-05-21T05:45:35.984Z,10.746765
2019-05-21T05:46:45.526Z,10.776978
2019-05-21T05:47:55.047Z,10.80719
2019-05-21T05:49:04.617Z,10.776978
2019-05-21T05:50:14.113Z,10.787048
2019-05-21T05:51:23.667Z,10.787048
2019-05-21T05:52:33.214Z,10.80719
2019-05-21T05:53:42.717Z,10.817261
2019-05-21T05:54:52.276Z,10.837402
2019-05-21T05:56:01.846Z,10.867615
2019-05-21T05:57:11.389Z,10.857544
2019-05-21T05:58:20.907Z,10.867615
2019-05-21T05:59:30.428Z,10.867615
2019-05-21T06:00:39.954Z,10.897827
2019-05-21T06:01:49.486Z,10.897827
2019-05-21T06:02:59.010Z,10.917969
2019-05-21T06:04:08.513Z,10.897827
2019-05-21T06:05:18.095Z,10.92804
2019-05-21T06:06:27.601Z,10.93811
2019-05-21T06:07:37.116Z,10.93811
2019-05-21T06:08:47.600Z,10.92804
2019-05-21T06:09:57.131Z,10.93811
2019-05-21T06:11:06.790Z,10.93811
2019-05-21T06:12:16.197Z,10.958252
2019-05-21T06:13:25.745Z,10.93811
2019-05-21T06:14:35.255Z,10.92804
2019-05-21T06:15:44.818Z,10.887756
2019-05-21T06:16:54.336Z,10.897827
2019-05-21T06:18:03.960Z,10.837402
2019-05-21T06:19:13.455Z,10.857544
2019-05-21T06:20:22.966Z,10.837402
2019-05-21T06:21:32.505Z,10.887756
2019-05-21T06:22:42.009Z,10.817261
2019-05-21T06:23:51.515Z,10.817261
2019-05-21T06:25:01.046Z,10.817261
2019-05-21T06:26:10.605Z,10.817261
2019-05-21T06:27:20.131Z,10.817261
2019-05-21T06:28:29.645Z,10.80719
2019-05-21T06:29:39.785Z,10.80719
2019-05-21T06:30:48.695Z,10.857544
2019-05-21T06:31:58.244Z,10.897827
2019-05-21T06:33:07.776Z,10.92804
2019-05-21T06:34:17.288Z,10.968323
2019-05-21T06:35:26.796Z,10.968323
2019-05-21T06:36:36.361Z,10.93811
2019-05-21T06:37:45.871Z,10.968323
2019-05-21T06:38:55.383Z,10.958252
2019-05-21T06:40:04.892Z,10.968323
2019-05-21T06:41:14.463Z,11.018677
2019-05-21T06:42:23.953Z,11.018677
2019-05-21T06:43:33.463Z,11.038818
2019-05-21T06:44:42.977Z,11.079102
2019-05-21T06:45:52.492Z,11.119385
2019-05-21T06:47:02.038Z,11.139526
2019-05-21T06:48:11.569Z,11.169739
2019-05-21T06:49:21.076Z,11.119385
2019-05-21T06:50:30.582Z,11.149597
2019-05-21T06:51:40.093Z,11.139526
2019-05-21T06:52:49.678Z,11.139526
2019-05-21T06:53:59.197Z,11.149597
2019-05-21T06:55:08.717Z,11.149597
2019-05-21T06:56:18.236Z,11.139526
2019-05-21T06:57:27.786Z,11.139526
2019-05-21T06:58:38.300Z,11.119385
2019-05-21T06:59:47.818Z,11.079102
2019-05-21T07:00:57.327Z,11.079102
2019-05-21T07:02:06.858Z,11.038818
2019-05-21T07:03:16.441Z,10.988464
2019-05-21T07:04:25.953Z,10.998535
2019-05-21T07:05:35.482Z,10.988464
2019-05-21T07:06:45.963Z,10.958252
2019-05-21T07:07:55.504Z,10.92804
2019-05-21T07:09:05.037Z,10.897827
2019-05-21T07:10:15.550Z,10.887756
2019-05-21T07:11:25.071Z,10.867615
2019-05-21T07:12:34.612Z,10.837402
2019-05-21T07:13:44.154Z,10.837402
2019-05-21T07:14:53.641Z,10.837402
2019-05-21T07:16:03.145Z,10.817261
2019-05-21T07:17:12.675Z,10.837402
2019-05-21T07:18:22.220Z,10.857544
2019-05-21T07:19:31.749Z,10.837402
2019-05-21T07:20:41.285Z,10.837402
2019-05-21T07:21:50.800Z,10.837402
2019-05-21T07:23:01.506Z,10.857544
2019-05-21T07:24:10.844Z,10.817261
2019-05-21T07:25:20.372Z,10.817261
2019-05-21T07:26:29.876Z,10.80719
2019-05-21T07:27:39.416Z,10.837402
2019-05-21T07:28:48.926Z,10.837402
2019-05-21T07:29:58.445Z,10.867615
2019-05-21T07:31:07.962Z,10.897827
2019-05-21T07:32:18.457Z,10.867615
2019-05-21T07:33:28.019Z,10.897827
2019-05-21T07:34:37.539Z,10.92804
2019-05-21T07:35:47.061Z,10.93811
2019-05-21T07:36:56.578Z,10.988464
2019-05-21T07:38:06.119Z,10.93811
2019-05-21T07:39:15.626Z,10.958252
2019-05-21T07:40:25.145Z,10.917969
2019-05-21T07:41:34.656Z,10.867615
2019-05-21T07:42:44.196Z,10.837402
2019-05-21T07:43:53.760Z,10.80719
2019-05-21T07:45:03.235Z,10.787048
2019-05-21T07:46:12.751Z,10.787048
2019-05-21T07:47:22.266Z,10.80719
2019-05-21T07:48:31.840Z,10.837402
2019-05-21T07:49:41.384Z,10.787048
2019-05-21T07:50:50.897Z,10.80719
2019-05-21T07:52:00.427Z,10.857544
2019-05-21T07:53:09.969Z,10.867615
2019-05-21T07:54:19.489Z,10.857544
2019-05-21T07:55:28.999Z,10.867615
2019-05-21T07:56:38.509Z,10.817261
2019-05-21T07:57:48.059Z,10.817261
2019-05-21T07:58:57.586Z,10.80719
2019-05-21T08:00:07.110Z,10.817261
2019-05-21T08:01:16.645Z,10.837402
2019-05-21T08:02:26.146Z,10.867615
2019-05-21T08:03:35.718Z,10.887756
2019-05-21T08:04:45.238Z,10.897827
2019-05-21T08:05:54.755Z,10.897827
2019-05-21T08:07:04.284Z,10.93811
2019-05-21T08:08:13.819Z,10.988464
2019-05-21T08:09:23.342Z,10.92804
2019-05-21T08:10:32.859Z,10.92804
2019-05-21T08:11:42.376Z,10.917969
2019-05-21T08:12:51.975Z,10.897827
2019-05-21T08:14:01.486Z,10.92804
2019-05-21T08:15:12.005Z,10.92804
2019-05-21T08:16:21.511Z,10.968323
2019-05-21T08:17:31.030Z,10.93811
2019-05-21T08:18:40.598Z,10.93811
2019-05-21T08:19:50.106Z,10.92804
2019-05-21T08:21:00.610Z,10.968323
2019-05-21T08:22:10.123Z,11.018677
2019-05-21T08:23:19.665Z,10.968323
2019-05-21T08:24:29.186Z,10.958252
2019-05-21T08:25:38.712Z,10.93811
2019-05-21T08:26:48.231Z,10.93811
2019-05-21T08:27:57.767Z,10.93811
2019-05-21T08:29:07.273Z,10.92804
2019-05-21T08:30:16.793Z,10.92804
2019-05-21T08:31:26.317Z,10.968323
2019-05-21T08:32:35.830Z,10.958252
2019-05-21T08:33:45.395Z,10.917969
2019-05-21T08:34:54.917Z,10.92804
2019-05-21T08:36:05.007Z,10.92804
2019-05-21T08:37:13.950Z,10.968323
2019-05-21T08:38:23.499Z,10.988464
2019-05-21T08:39:33.030Z,10.968323
2019-05-21T08:40:42.536Z,10.988464
2019-05-21T08:41:52.058Z,10.988464
2019-05-21T08:43:01.587Z,11.018677
2019-05-21T08:44:11.118Z,10.988464
2019-05-21T08:45:20.640Z,11.038818
2019-05-21T08:46:30.163Z,10.958252
2019-05-21T08:47:39.695Z,10.958252
2019-05-21T08:48:49.265Z,10.988464
2019-05-21T08:49:58.777Z,10.968323
2019-05-21T08:51:08.300Z,10.93811
2019-05-21T08:52:17.813Z,10.917969
2019-05-21T08:53:27.363Z,10.857544
2019-05-21T08:54:36.890Z,10.887756
2019-05-21T08:55:46.403Z,10.857544
2019-05-21T08:56:55.919Z,10.867615
2019-05-21T08:58:07.239Z,10.887756
2019-05-21T08:59:14.959Z,10.867615
2019-05-21T09:00:24.485Z,10.887756
2019-05-21T09:01:33.982Z,10.857544
2019-05-21T09:02:43.501Z,10.867615
2019-05-21T09:03:53.048Z,10.897827
2019-05-21T09:05:02.565Z,10.92804
2019-05-21T09:06:12.079Z,10.917969
2019-05-21T09:07:21.666Z,10.958252
2019-05-21T09:08:31.173Z,10.968323
2019-05-21T09:09:49.713Z,10.968323
2019-05-21T09:10:51.158Z,10.998535
2019-05-21T09:12:00.667Z,11.048889
2019-05-21T09:13:10.189Z,11.079102
2019-05-21T09:14:19.710Z,11.109314
2019-05-21T09:15:29.280Z,11.17981
2019-05-21T09:16:38.794Z,11.260376
2019-05-21T09:17:48.313Z,11.260376
2019-05-21T09:18:57.861Z,11.300659
2019-05-21T09:20:07.380Z,11.330872
2019-05-21T09:21:16.889Z,11.401367
2019-05-21T09:22:26.408Z,11.401367
2019-05-21T09:23:35.916Z,11.451721
2019-05-21T09:24:45.485Z,11.44165
2019-05-21T09:25:54.978Z,11.411438
2019-05-21T09:27:04.506Z,11.43158
2019-05-21T09:28:14.013Z,11.451721
2019-05-21T09:29:23.573Z,11.512146
2019-05-21T09:30:33.090Z,11.622925
2019-05-21T09:31:42.616Z,11.632996
2019-05-21T09:32:52.128Z,11.653137
2019-05-21T09:34:01.669Z,11.632996
2019-05-21T09:35:11.195Z,11.69342
2019-05-21T09:36:20.706Z,11.703491
2019-05-21T09:37:30.220Z,11.703491
2019-05-21T09:38:39.716Z,11.773987
2019-05-21T09:39:49.298Z,11.703491
2019-05-21T09:40:58.823Z,11.784058
2019-05-21T09:42:08.342Z,11.834412
2019-05-21T09:43:17.870Z,11.81427
2019-05-21T09:44:27.418Z,11.834412
2019-05-21T09:45:36.966Z,11.844482
2019-05-21T09:46:46.491Z,11.864624
2019-05-21T09:47:56.015Z,11.864624
2019-05-21T09:49:05.561Z,11.874695
2019-05-21T09:50:15.082Z,11.874695
2019-05-21T09:51:24.597Z,12.025757
2019-05-21T09:52:34.123Z,11.995544
2019-05-21T09:53:43.655Z,12.086182
2019-05-21T09:54:53.192Z,12.166748
2019-05-21T09:56:02.707Z,12.19696
2019-05-21T09:57:12.234Z,12.277527
2019-05-21T09:58:21.777Z,12.31781
2019-05-21T09:59:31.316Z,12.358093
2019-05-21T10:00:40.839Z,12.388306
2019-05-21T10:01:50.358Z,12.388306
2019-05-21T10:02:59.881Z,12.418518
2019-05-21T10:04:09.386Z,12.539368
2019-05-21T10:05:18.926Z,12.599792
2019-05-21T10:06:28.427Z,12.599792
2019-05-21T10:07:40.475Z,12.730713
2019-05-21T10:08:47.459Z,12.650146
2019-05-21T10:09:57.011Z,12.680359
2019-05-21T10:11:06.525Z,12.750854
2019-05-21T10:12:16.056Z,12.791138
2019-05-21T10:13:25.578Z,12.720642
2019-05-21T10:14:35.117Z,12.760925
2019-05-21T10:15:44.639Z,12.760925
2019-05-21T10:16:54.155Z,12.730713
2019-05-21T10:18:03.721Z,12.619934
2019-05-21T10:19:14.182Z,12.599792
2019-05-21T10:20:23.732Z,12.609863
2019-05-21T10:21:33.268Z,12.7005
2019-05-21T10:22:42.758Z,12.680359
2019-05-21T10:23:52.322Z,12.619934
2019-05-21T10:25:01.854Z,12.650146
2019-05-21T10:26:11.366Z,12.760925
2019-05-21T10:27:20.882Z,12.670288
2019-05-21T10:28:30.400Z,12.609863
2019-05-21T10:29:39.947Z,12.670288
2019-05-21T10:30:49.464Z,12.730713
2019-05-21T10:31:58.985Z,12.781067
2019-05-21T10:33:08.519Z,12.791138
2019-05-21T10:34:18.054Z,12.831421
2019-05-21T10:35:27.596Z,12.82135
2019-05-21T10:36:37.108Z,12.861633
2019-05-21T10:37:54.269Z,12.982483
2019-05-21T10:38:56.104Z,12.9422
2019-05-21T10:40:05.640Z,13.083191
2019-05-21T10:41:15.177Z,13.052979
2019-05-21T10:42:24.693Z,13.032837
2019-05-21T10:43:34.208Z,12.982483
2019-05-21T10:44:43.766Z,13.012695
2019-05-21T10:45:53.284Z,13.083191
2019-05-21T10:47:02.834Z,13.083191
2019-05-21T10:48:13.341Z,13.204041
2019-05-21T10:49:22.856Z,13.123474
2019-05-21T10:50:32.401Z,13.113403
2019-05-21T10:51:41.920Z,13.153687
2019-05-21T10:52:51.436Z,13.042908
2019-05-21T10:54:00.949Z,13.113403
2019-05-21T10:55:10.492Z,13.163757
2019-05-21T10:56:19.976Z,13.083191
2019-05-21T10:57:29.496Z,13.042908
2019-05-21T10:58:39.014Z,13.153687
2019-05-21T10:59:48.577Z,13.234253
2019-05-21T11:00:58.098Z,13.042908
2019-05-21T11:02:07.675Z,12.911987
2019-05-21T11:03:17.144Z,12.952271
2019-05-21T11:04:27.661Z,13.052979
2019-05-21T11:05:37.211Z,13.274536
2019-05-21T11:06:46.724Z,13.375244
2019-05-21T11:07:56.259Z,13.334961
2019-05-21T11:09:06.735Z,13.385315
2019-05-21T11:10:16.302Z,13.486023
2019-05-21T11:11:25.817Z,13.385315
2019-05-21T11:12:35.334Z,13.486023
2019-05-21T11:13:44.850Z,13.455811
2019-05-21T11:14:54.392Z,13.314819
2019-05-21T11:16:03.925Z,13.375244
2019-05-21T11:17:13.450Z,13.284607
2019-05-21T11:18:22.965Z,13.415527
2019-05-21T11:19:32.481Z,13.405457
2019-05-21T11:20:42.029Z,13.284607
2019-05-21T11:21:51.553Z,13.204041
2019-05-21T11:23:01.071Z,13.234253
2019-05-21T11:24:10.618Z,13.415527
2019-05-21T11:25:20.180Z,13.455811
2019-05-21T11:26:29.729Z,13.536377
2019-05-21T11:27:39.247Z,13.516235
2019-05-21T11:28:48.757Z,13.455811
2019-05-21T11:29:58.370Z,13.385315
2019-05-21T11:31:07.888Z,13.385315
2019-05-21T11:32:17.420Z,13.486023
2019-05-21T11:33:26.972Z,13.455811
2019-05-21T11:34:36.502Z,13.486023
2019-05-21T11:35:46.054Z,13.496094
2019-05-21T11:36:55.559Z,13.496094
2019-05-21T11:38:05.148Z,13.465881
2019-05-21T11:39:14.610Z,13.375244
2019-05-21T11:40:24.152Z,13.435669
2019-05-21T11:41:33.680Z,13.385315
2019-05-21T11:42:43.210Z,13.314819
2019-05-21T11:43:53.712Z,13.435669
2019-05-21T11:45:03.306Z,13.435669
2019-05-21T11:46:12.771Z,13.496094
2019-05-21T11:47:22.288Z,13.596802
2019-05-21T11:48:31.801Z,13.737793
2019-05-21T11:49:41.314Z,13.808289
2019-05-21T11:50:50.867Z,13.667297
2019-05-21T11:52:00.389Z,13.586731
2019-05-21T11:53:09.908Z,13.415527
2019-05-21T11:54:19.439Z,13.415527
2019-05-21T11:55:28.993Z,13.465881
2019-05-21T11:56:38.524Z,13.566589
2019-05-21T11:57:48.047Z,13.526306
2019-05-21T11:58:57.555Z,13.536377
2019-05-21T12:00:07.126Z,13.465881
2019-05-21T12:01:16.685Z,13.486023
2019-05-21T12:02:26.166Z,13.486023
2019-05-21T12:03:35.683Z,13.516235
2019-05-21T12:04:45.207Z,13.405457
2019-05-21T12:05:54.749Z,13.375244
2019-05-21T12:07:04.271Z,13.274536
2019-05-21T12:08:13.799Z,13.224182
2019-05-21T12:09:23.313Z,13.153687
2019-05-21T12:10:32.865Z,13.032837
2019-05-21T12:11:42.392Z,13.113403
2019-05-21T12:12:51.925Z,13.042908
2019-05-21T12:14:01.453Z,13.113403
2019-05-21T12:15:10.990Z,13.163757
2019-05-21T12:16:20.552Z,13.133545
2019-05-21T12:17:30.076Z,12.972412
2019-05-21T12:18:39.599Z,12.871704
2019-05-21T12:19:49.117Z,12.911987
2019-05-21T12:20:58.674Z,12.851562
2019-05-21T12:22:08.181Z,12.760925
2019-05-21T12:23:17.695Z,12.791138
2019-05-21T12:24:27.641Z,12.760925
2019-05-21T12:25:36.756Z,12.730713
2019-05-21T12:26:46.316Z,12.619934
2019-05-21T12:27:55.797Z,12.539368
2019-05-21T12:29:05.303Z,12.499084
2019-05-21T12:30:14.831Z,12.468872
2019-05-21T12:31:24.377Z,12.499084
2019-05-21T12:32:33.922Z,12.539368
2019-05-21T12:33:43.453Z,12.549438
2019-05-21T12:34:52.983Z,12.529297
2019-05-21T12:36:02.534Z,12.468872
2019-05-21T12:37:12.043Z,12.44873
2019-05-21T12:38:21.573Z,12.468872
2019-05-21T12:39:31.075Z,12.529297
2019-05-21T12:40:40.598Z,12.549438
2019-05-21T12:41:50.141Z,12.579651
2019-05-21T12:42:59.665Z,12.650146
2019-05-21T12:44:10.176Z,12.619934
2019-05-21T12:45:19.699Z,12.680359
2019-05-21T12:46:29.252Z,12.609863
2019-05-21T12:47:38.767Z,12.650146
2019-05-21T12:48:49.267Z,12.599792
2019-05-21T12:49:58.783Z,12.579651
2019-05-21T12:51:08.287Z,12.539368
2019-05-21T12:52:17.833Z,12.549438
2019-05-21T12:53:27.343Z,12.650146
2019-05-21T12:54:36.959Z,12.670288
2019-05-21T12:55:46.375Z,12.640076
2019-05-21T12:56:55.912Z,12.619934
2019-05-21T12:58:05.433Z,12.579651
2019-05-21T12:59:14.951Z,12.529297
2019-05-21T13:00:24.465Z,12.418518
2019-05-21T13:01:34.971Z,12.398376
2019-05-21T13:02:44.524Z,12.398376
2019-05-21T13:03:55.460Z,12.418518
2019-05-21T13:05:03.589Z,12.368164
2019-05-21T13:06:13.098Z,12.287598
2019-05-21T13:07:22.676Z,12.287598
2019-05-21T13:08:32.202Z,12.358093
2019-05-21T13:09:41.715Z,12.368164
2019-05-21T13:10:51.232Z,12.418518
2019-05-21T13:12:00.784Z,12.368164
2019-05-21T13:13:10.300Z,12.307739
2019-05-21T13:14:19.811Z,12.267456
2019-05-21T13:15:29.336Z,12.287598